Terminal Aerodrome Forecast
Issued by NWS Tulsa, OK

Home | Current Version | Previous Version | Text Only | Print | Product List | Glossary On
Versions: 1 2 3 4 5 6 7 8 9 10 11 12 13 14 15 16 17 18 19
000
FTUS44 KTSA 012300
TAFTUL
TAF
KTUL 012339Z 0200/0224 36006KT P6SM BKN025
      TEMPO 0200/0204 SCT025 BKN250
     FM020400 01007KT P6SM SCT025 BKN050
     FM021400 05008KT P6SM SCT020 BKN050
     FM021700 15006KT P6SM OVC015=

USA.gov is the U.S. government's official web portal to all federal, state and local government web resources and services.